Dymchurch, United Kingdom
Current Conditions -  °F | °C
As of 6:50 PM on Saturday 25 Oct 2014 (Local Time) from EGMD Reporting Station
Few Clouds Few Clouds  
Wind Chill: 13°   Ceiling: Unl
Heat Index: 13°   Visibility: 6mi
Dew Point: 10°   Wind: 9mph
Humidity: 82%   Direction: 260°W
Pressure: 30.15"   Gusts: NA
Location:  51.03°N, 0.99°E
Report Text: EGMD 251750Z 26008KT 9999 FEW022 13/10 Q1021
Loading
Personal Weather Stations






























Interactive Weather Map
Tropical Storm Tracking
New forecast layout! Learn more

10-Day Weather Forecast

Advertisements
Track Severe Weather on mobile